createdAt,value
2022-09-07T00:01:07.003Z,14.19
2022-09-07T00:03:35.064Z,14.13
2022-09-07T00:06:08.998Z,14.08
2022-09-07T00:08:37.232Z,14.00
2022-09-07T00:11:10.699Z,13.98
2022-09-07T00:13:40.070Z,13.92
2022-09-07T00:16:11.932Z,13.87
2022-09-07T00:18:45.092Z,13.83
2022-09-07T00:21:15.584Z,13.80
2022-09-07T00:23:43.112Z,13.78
2022-09-07T00:26:15.388Z,13.76
2022-09-07T00:28:43.478Z,13.73
2022-09-07T00:31:19.686Z,13.70
2022-09-07T00:33:48.683Z,13.67
2022-09-07T00:36:17.763Z,13.65
2022-09-07T00:38:45.238Z,13.62
2022-09-07T00:41:13.449Z,13.60
2022-09-07T00:43:43.653Z,13.56
2022-09-07T00:46:23.498Z,13.53
2022-09-07T00:49:11.952Z,13.48
2022-09-07T00:51:50.006Z,13.43
2022-09-07T00:54:39.857Z,13.38
2022-09-07T00:57:07.386Z,13.33
2022-09-07T00:59:41.303Z,13.30
2022-09-07T01:02:09.145Z,13.27
2022-09-07T01:04:37.190Z,13.24
2022-09-07T01:07:05.402Z,13.21
2022-09-07T01:09:33.196Z,13.17
2022-09-07T01:12:01.705Z,13.11
2022-09-07T01:14:37.218Z,13.06
2022-09-07T01:17:31.988Z,13.00
2022-09-07T01:20:30.844Z,12.93
2022-09-07T01:23:16.002Z,12.85
2022-09-07T01:26:20.812Z,12.78
2022-09-07T01:28:57.136Z,12.69
2022-09-07T01:31:47.270Z,12.61
2022-09-07T01:34:24.685Z,12.53
2022-09-07T01:37:16.152Z,12.47
2022-09-07T01:39:57.027Z,12.39
2022-09-07T01:42:30.915Z,12.27
2022-09-07T01:45:03.828Z,12.27
2022-09-07T01:47:41.118Z,12.24
2022-09-07T01:50:53.378Z,12.20
2022-09-07T01:53:37.826Z,12.14
2022-09-07T01:56:23.339Z,12.11
2022-09-07T01:58:57.696Z,12.07
2022-09-07T02:01:50.508Z,12.04
2022-09-07T02:04:26.386Z,12.00
2022-09-07T02:07:14.887Z,11.96
2022-09-07T02:09:52.045Z,11.91
2022-09-07T02:12:45.375Z,11.87
2022-09-07T02:15:22.457Z,11.83
2022-09-07T02:17:54.293Z,11.78
2022-09-07T02:20:32.733Z,11.75
2022-09-07T02:23:04.969Z,11.75
2022-09-07T02:25:57.227Z,11.76
2022-09-07T02:28:36.503Z,11.79
2022-09-07T02:31:04.701Z,11.77
2022-09-07T02:33:32.808Z,11.76
2022-09-07T02:36:02.449Z,11.77
2022-09-07T02:38:31.728Z,11.76
2022-09-07T02:41:02.042Z,11.74
2022-09-07T02:43:30.829Z,11.70
2022-09-07T02:46:21.139Z,11.64
2022-09-07T02:49:33.634Z,11.56
2022-09-07T02:52:41.022Z,11.50
2022-09-07T02:55:55.439Z,11.44
2022-09-07T02:58:34.918Z,11.40
2022-09-07T03:01:20.518Z,11.37
2022-09-07T03:04:29.822Z,11.34
2022-09-07T03:07:23.867Z,11.32
2022-09-07T03:09:54.634Z,11.29
2022-09-07T03:12:22.270Z,11.26
2022-09-07T03:14:49.723Z,11.22
2022-09-07T03:17:17.310Z,11.18
2022-09-07T03:19:44.771Z,11.14
2022-09-07T03:22:12.263Z,11.10
2022-09-07T03:24:39.771Z,11.07
2022-09-07T03:27:07.190Z,11.07
2022-09-07T03:29:37.302Z,11.06
2022-09-07T03:32:06.757Z,11.04
2022-09-07T03:34:35.142Z,11.04
2022-09-07T03:37:03.244Z,11.06
2022-09-07T03:39:30.682Z,11.06
2022-09-07T03:41:58.158Z,11.08
2022-09-07T03:44:25.652Z,11.07
2022-09-07T03:46:53.108Z,11.08
2022-09-07T03:49:20.569Z,11.07
2022-09-07T03:51:48.014Z,11.06
2022-09-07T03:54:15.463Z,11.06
2022-09-07T03:56:42.983Z,11.04
2022-09-07T03:59:10.533Z,11.04
2022-09-07T04:01:38.087Z,11.03
2022-09-07T04:04:05.749Z,11.02
2022-09-07T04:06:33.128Z,11.01
2022-09-07T04:09:05.914Z,11.03
2022-09-07T04:11:34.184Z,11.06
2022-09-07T04:14:01.844Z,11.07
2022-09-07T04:16:29.916Z,11.07
2022-09-07T04:18:58.276Z,11.07
2022-09-07T04:21:29.397Z,11.10
2022-09-07T04:24:00.859Z,11.16
2022-09-07T04:26:32.364Z,11.21
2022-09-07T04:29:02.619Z,11.25
2022-09-07T04:31:45.221Z,11.27
2022-09-07T04:34:27.868Z,11.24
2022-09-07T04:36:57.056Z,11.31
2022-09-07T04:39:24.703Z,11.34
2022-09-07T04:41:52.267Z,11.38
2022-09-07T04:44:19.857Z,11.42
2022-09-07T04:46:47.295Z,11.49
2022-09-07T04:49:14.785Z,11.53
2022-09-07T04:51:43.795Z,11.58
2022-09-07T04:54:11.297Z,11.63
2022-09-07T04:56:39.253Z,11.72
2022-09-07T04:59:06.913Z,11.81
2022-09-07T05:01:34.659Z,11.89
2022-09-07T05:04:04.342Z,11.97
2022-09-07T05:06:32.137Z,12.03
2022-09-07T05:08:59.859Z,12.11
2022-09-07T05:11:29.764Z,12.17
2022-09-07T05:14:02.499Z,12.24
2022-09-07T05:16:30.977Z,12.29
2022-09-07T05:19:04.534Z,12.37
2022-09-07T05:21:33.821Z,12.49
2022-09-07T05:24:02.431Z,12.57
2022-09-07T05:26:33.688Z,12.63
2022-09-07T05:31:51.485Z,12.74
2022-09-07T05:34:34.515Z,12.82
2022-09-07T05:37:02.362Z,12.90
2022-09-07T05:39:30.983Z,12.95
2022-09-07T05:41:58.515Z,13.01
2022-09-07T05:47:14.252Z,13.32
2022-09-07T05:49:42.046Z,13.45
2022-09-07T05:52:10.017Z,13.58
2022-09-07T05:54:37.418Z,13.71
2022-09-07T05:57:05.957Z,13.82
2022-09-07T05:59:34.445Z,13.90
2022-09-07T06:02:07.437Z,13.96
2022-09-07T06:04:35.219Z,14.01
2022-09-07T06:07:21.233Z,14.04
2022-09-07T06:12:37.824Z,14.28
2022-09-07T06:15:18.204Z,14.43
2022-09-07T06:17:45.897Z,14.58
2022-09-07T06:20:13.468Z,14.68
2022-09-07T06:22:41.465Z,14.75
2022-09-07T06:25:10.242Z,14.81
2022-09-07T06:27:37.611Z,14.86
2022-09-07T06:30:11.688Z,14.89
2022-09-07T06:35:08.955Z,14.96
2022-09-07T06:37:37.948Z,15.03
2022-09-07T06:40:07.611Z,15.13
2022-09-07T06:42:35.526Z,15.21
2022-09-07T06:45:04.001Z,15.28
2022-09-07T06:47:31.620Z,15.39
2022-09-07T06:49:59.502Z,15.47
2022-09-07T06:52:27.363Z,15.56
2022-09-07T06:54:59.920Z,15.65
2022-09-07T06:57:28.062Z,15.74
2022-09-07T06:59:55.555Z,15.78
2022-09-07T07:02:23.162Z,15.90
2022-09-07T07:04:50.708Z,15.99
2022-09-07T07:07:18.388Z,16.05
2022-09-07T07:09:45.938Z,16.14
2022-09-07T07:12:13.477Z,16.22
2022-09-07T07:14:44.793Z,16.28
2022-09-07T07:17:13.518Z,16.31
2022-09-07T07:19:41.296Z,16.36
2022-09-07T07:25:06.330Z,16.43
2022-09-07T07:27:33.959Z,16.51
2022-09-07T07:30:01.407Z,16.62
2022-09-07T07:32:28.932Z,16.73
2022-09-07T07:34:57.632Z,16.81
2022-09-07T07:37:28.186Z,16.87
2022-09-07T07:42:41.167Z,17.04
2022-09-07T07:47:58.596Z,17.23
2022-09-07T07:50:34.000Z,17.34
2022-09-07T07:56:00.866Z,17.65
2022-09-07T07:58:33.359Z,17.79
2022-09-07T08:01:04.096Z,17.95
2022-09-07T08:03:38.179Z,18.12
2022-09-07T08:06:11.769Z,18.31
2022-09-07T08:08:40.212Z,18.49
2022-09-07T08:11:11.640Z,18.62
2022-09-07T08:13:41.619Z,18.69
2022-09-07T08:16:10.757Z,18.74
2022-09-07T08:18:39.393Z,18.84
2022-09-07T08:21:14.579Z,18.97
2022-09-07T08:23:42.342Z,19.19
2022-09-07T08:26:10.158Z,19.41
2022-09-07T08:28:40.283Z,19.63
2022-09-07T08:31:11.342Z,19.80
2022-09-07T08:33:39.329Z,19.91
2022-09-07T08:36:11.094Z,20.00
2022-09-07T08:38:38.801Z,20.06
2022-09-07T08:41:45.998Z,20.12
2022-09-07T08:44:28.081Z,20.19
2022-09-07T08:47:10.663Z,20.20
2022-09-07T08:49:53.277Z,20.19
2022-09-07T08:52:34.011Z,20.17
2022-09-07T08:55:15.202Z,20.14
2022-09-07T08:57:46.256Z,20.07
2022-09-07T09:00:16.985Z,20.03
2022-09-07T09:06:08.913Z,20.06
2022-09-07T09:06:11.591Z,20.05
2022-09-07T09:09:16.478Z,20.13
2022-09-07T09:12:20.566Z,20.14
2022-09-07T09:15:26.032Z,20.18
2022-09-07T09:18:14.961Z,20.29
2022-09-07T09:20:56.704Z,20.37
2022-09-07T09:23:27.320Z,20.45
2022-09-07T09:25:58.269Z,20.47
2022-09-07T09:28:27.709Z,20.51
2022-09-07T09:30:57.803Z,20.49
2022-09-07T09:33:28.496Z,20.50
2022-09-07T09:36:01.383Z,20.56
2022-09-07T09:38:40.074Z,20.66
2022-09-07T09:41:15.056Z,20.76
2022-09-07T09:43:51.163Z,20.87
2022-09-07T09:46:33.227Z,20.94
2022-09-07T09:49:28.911Z,21.03
2022-09-07T09:54:50.569Z,21.21
2022-09-07T10:01:21.095Z,21.39
2022-09-07T10:06:19.320Z,21.59
2022-09-07T10:09:04.843Z,21.73
2022-09-07T10:12:06.801Z,21.81
2022-09-07T10:14:43.447Z,21.86
2022-09-07T10:17:29.157Z,21.90
2022-09-07T10:20:22.425Z,21.97
2022-09-07T10:22:59.358Z,22.06
2022-09-07T10:25:39.435Z,22.05
2022-09-07T10:28:10.981Z,22.05
2022-09-07T10:31:15.838Z,22.03
2022-09-07T10:37:07.851Z,22.09
2022-09-07T10:40:00.538Z,22.06
2022-09-07T10:42:35.563Z,22.07
2022-09-07T10:45:08.019Z,22.14
2022-09-07T10:48:05.750Z,22.25
2022-09-07T10:50:55.580Z,22.36
2022-09-07T10:54:30.674Z,22.36
2022-09-07T10:57:19.851Z,22.37
2022-09-07T11:00:09.295Z,22.42
2022-09-07T11:06:21.854Z,22.53
2022-09-07T11:09:26.615Z,22.51
2022-09-07T11:12:14.934Z,22.60
2022-09-07T11:14:52.556Z,22.78
2022-09-07T11:17:28.918Z,22.97
2022-09-07T11:20:08.367Z,22.99
2022-09-07T11:22:55.356Z,22.89
2022-09-07T11:26:04.653Z,22.84
2022-09-07T11:31:47.428Z,22.67
2022-09-07T11:34:45.179Z,22.56
2022-09-07T11:37:45.991Z,22.51
2022-09-07T11:40:33.321Z,22.43
2022-09-07T11:43:23.041Z,22.32
2022-09-07T11:46:43.660Z,22.21
2022-09-07T11:49:26.629Z,22.10
2022-09-07T11:52:26.926Z,21.97
2022-09-07T11:55:18.353Z,21.90
2022-09-07T11:58:12.684Z,21.87
2022-09-07T12:01:23.127Z,21.83
2022-09-07T12:04:15.353Z,21.71
2022-09-07T12:07:20.500Z,21.64
2022-09-07T12:10:34.564Z,21.69
2022-09-07T12:13:47.227Z,21.93
2022-09-07T12:16:28.346Z,22.28
2022-09-07T12:19:12.391Z,22.58
2022-09-07T12:21:45.537Z,22.87
2022-09-07T12:24:52.804Z,23.10
2022-09-07T12:27:20.325Z,23.20
2022-09-07T12:29:49.891Z,23.08
2022-09-07T12:32:56.596Z,22.91
2022-09-07T12:35:28.059Z,22.79
2022-09-07T12:37:59.248Z,22.79
2022-09-07T12:40:32.876Z,22.83
2022-09-07T12:43:12.482Z,22.83
2022-09-07T12:45:40.012Z,22.93
2022-09-07T12:48:16.801Z,22.92
2022-09-07T12:51:05.667Z,22.78
2022-09-07T12:53:57.896Z,22.70
2022-09-07T12:56:38.050Z,22.66
2022-09-07T12:59:19.592Z,22.60
2022-09-07T13:02:28.698Z,22.50
2022-09-07T13:05:26.316Z,22.40
2022-09-07T13:08:09.537Z,22.32
2022-09-07T13:10:40.633Z,22.24
2022-09-07T13:16:14.787Z,22.01
2022-09-07T13:18:43.621Z,22.02
2022-09-07T13:21:11.555Z,22.07
2022-09-07T13:23:45.532Z,22.07
2022-09-07T13:27:14.284Z,22.06
2022-09-07T13:30:22.580Z,21.98
2022-09-07T13:35:45.101Z,22.08
2022-09-07T13:38:14.929Z,22.12
2022-09-07T13:40:46.856Z,22.16
2022-09-07T13:43:22.122Z,22.21
2022-09-07T13:45:55.622Z,22.26
2022-09-07T13:48:50.257Z,22.32
2022-09-07T13:51:45.608Z,22.33
2022-09-07T13:54:58.160Z,22.32
2022-09-07T13:58:38.891Z,22.30
2022-09-07T14:01:15.589Z,22.32
2022-09-07T14:04:06.972Z,22.37
2022-09-07T14:06:36.534Z,22.38
2022-09-07T14:09:21.266Z,22.39
2022-09-07T14:11:53.931Z,22.39
2022-09-07T14:14:32.243Z,22.38
2022-09-07T14:16:59.430Z,22.33
2022-09-07T14:19:45.028Z,22.23
2022-09-07T14:22:18.439Z,22.10
2022-09-07T14:25:03.292Z,21.94
2022-09-07T14:27:41.656Z,21.81
2022-09-07T14:30:28.533Z,21.70
2022-09-07T14:33:04.486Z,21.62
2022-09-07T14:35:33.394Z,21.58
2022-09-07T14:41:17.542Z,21.56
2022-09-07T14:43:53.942Z,21.55
2022-09-07T14:46:29.177Z,21.54
2022-09-07T14:49:00.131Z,21.50
2022-09-07T14:51:35.489Z,21.45
2022-09-07T14:54:07.084Z,21.40
2022-09-07T14:56:39.929Z,21.35
2022-09-07T14:59:40.029Z,21.35
2022-09-07T15:02:21.485Z,21.34
2022-09-07T15:05:12.723Z,21.31
2022-09-07T15:07:46.435Z,21.24
2022-09-07T15:10:23.562Z,21.16
2022-09-07T15:13:01.791Z,21.12
2022-09-07T15:15:37.439Z,21.07
2022-09-07T15:18:54.244Z,21.06
2022-09-07T15:21:27.540Z,21.00
2022-09-07T15:23:58.047Z,20.95
2022-09-07T15:29:28.701Z,20.87
2022-09-07T15:32:03.315Z,20.86
2022-09-07T15:34:31.763Z,20.82
2022-09-07T15:37:00.135Z,20.78
2022-09-07T15:39:33.900Z,20.74
2022-09-07T15:42:59.429Z,20.70
2022-09-07T15:44:50.302Z,20.64
2022-09-07T15:50:07.092Z,20.61
2022-09-07T15:52:34.493Z,20.60
2022-09-07T15:55:01.803Z,20.56
2022-09-07T16:00:19.141Z,20.50
2022-09-07T16:03:06.511Z,20.45
2022-09-07T16:05:34.811Z,20.42
2022-09-07T16:10:55.300Z,20.36
2022-09-07T16:13:23.743Z,20.33
2022-09-07T16:15:51.195Z,20.29
2022-09-07T16:18:18.592Z,20.22
2022-09-07T16:20:46.158Z,20.17
2022-09-07T16:23:15.907Z,20.12
2022-09-07T16:25:56.863Z,20.04
2022-09-07T16:28:24.954Z,19.97
2022-09-07T16:30:52.274Z,19.89
2022-09-07T16:33:19.602Z,19.80
2022-09-07T16:36:01.927Z,19.73
2022-09-07T16:38:47.067Z,19.65
2022-09-07T16:41:20.757Z,19.57
2022-09-07T16:43:48.942Z,19.48
2022-09-07T16:46:19.474Z,19.40
2022-09-07T16:48:47.199Z,19.27
2022-09-07T16:51:18.911Z,19.20
2022-09-07T16:53:48.463Z,19.12
2022-09-07T16:56:19.187Z,19.04
2022-09-07T16:58:52.290Z,18.96
2022-09-07T17:01:23.869Z,18.89
2022-09-07T17:03:51.798Z,18.82
2022-09-07T17:06:22.124Z,18.77
2022-09-07T17:08:49.399Z,18.71
2022-09-07T17:11:19.943Z,18.65
2022-09-07T17:13:47.751Z,18.59
2022-09-07T17:16:26.623Z,18.53
2022-09-07T17:21:42.173Z,18.40
2022-09-07T17:24:10.897Z,18.33
2022-09-07T17:26:42.055Z,18.26
2022-09-07T17:29:10.430Z,18.17
2022-09-07T17:34:25.841Z,18.04
2022-09-07T17:36:53.070Z,18.00
2022-09-07T17:39:20.428Z,17.96
2022-09-07T17:41:52.273Z,17.94
2022-09-07T17:44:23.639Z,17.90
2022-09-07T17:46:51.111Z,17.84
2022-09-07T17:49:18.532Z,17.76
2022-09-07T17:51:45.963Z,17.67
2022-09-07T17:54:16.865Z,17.57
2022-09-07T17:56:44.919Z,17.47
2022-09-07T18:02:00.971Z,17.33
2022-09-07T18:04:28.912Z,17.28
2022-09-07T18:06:56.354Z,17.24
2022-09-07T18:09:23.630Z,17.20
2022-09-07T18:11:51.275Z,17.16
2022-09-07T18:14:19.402Z,17.09
2022-09-07T18:16:49.512Z,17.03
2022-09-07T18:19:18.609Z,16.97
2022-09-07T18:21:47.312Z,16.93
2022-09-07T18:24:22.357Z,16.89
2022-09-07T18:26:52.740Z,16.85
2022-09-07T18:29:30.085Z,16.80
2022-09-07T18:32:04.101Z,16.77
2022-09-07T18:34:31.918Z,16.74
2022-09-07T18:37:00.671Z,16.70
2022-09-07T18:39:28.426Z,16.67
2022-09-07T18:41:55.808Z,16.62
2022-09-07T18:47:28.367Z,16.52
2022-09-07T18:49:57.567Z,16.48
2022-09-07T18:55:12.695Z,16.43
2022-09-07T18:57:40.061Z,16.39
2022-09-07T19:00:09.380Z,16.35
2022-09-07T19:02:36.997Z,16.30
2022-09-07T19:07:52.956Z,16.17
2022-09-07T19:10:20.404Z,16.12
2022-09-07T19:12:47.642Z,16.06
2022-09-07T19:15:15.202Z,16.02
2022-09-07T19:17:42.515Z,15.99
2022-09-07T19:20:09.987Z,15.98
2022-09-07T19:22:38.495Z,15.97
2022-09-07T19:25:06.211Z,15.96
2022-09-07T19:27:33.610Z,15.96
2022-09-07T19:30:01.266Z,15.96
2022-09-07T19:32:28.864Z,15.96
2022-09-07T19:34:56.217Z,15.95
2022-09-07T19:37:25.021Z,15.93
2022-09-07T19:39:56.204Z,15.91
2022-09-07T19:42:24.866Z,15.90
2022-09-07T19:44:53.626Z,15.89
2022-09-07T19:47:21.301Z,15.91
2022-09-07T19:49:48.834Z,15.93
2022-09-07T19:52:16.287Z,15.94
2022-09-07T19:54:43.711Z,15.96
2022-09-07T19:57:11.089Z,15.94
2022-09-07T19:59:39.172Z,15.96
2022-09-07T20:02:06.649Z,15.98
2022-09-07T20:04:35.439Z,15.97
2022-09-07T20:07:03.650Z,15.96
2022-09-07T20:09:30.827Z,15.94
2022-09-07T20:11:58.082Z,15.93
2022-09-07T20:14:25.333Z,15.92
2022-09-07T20:16:52.683Z,15.92
2022-09-07T20:19:20.026Z,15.89
2022-09-07T20:21:48.470Z,15.85
2022-09-07T20:24:21.586Z,15.81
2022-09-07T20:26:49.194Z,15.78
2022-09-07T20:29:27.195Z,15.75
2022-09-07T20:31:59.364Z,15.72
2022-09-07T20:34:27.894Z,15.70
2022-09-07T20:36:56.299Z,15.70
2022-09-07T20:39:23.687Z,15.70
2022-09-07T20:41:50.940Z,15.72
2022-09-07T20:44:20.628Z,15.71
2022-09-07T20:46:48.096Z,15.70
2022-09-07T20:49:15.485Z,15.68
2022-09-07T20:51:43.036Z,15.67
2022-09-07T20:54:10.392Z,15.65
2022-09-07T20:56:37.700Z,15.60
2022-09-07T20:59:05.029Z,15.55
2022-09-07T21:01:32.766Z,15.52
2022-09-07T21:04:01.181Z,15.48
2022-09-07T21:06:29.287Z,15.46
2022-09-07T21:08:56.788Z,15.45
2022-09-07T21:11:33.172Z,15.42
2022-09-07T21:14:07.583Z,15.36
2022-09-07T21:16:35.831Z,15.32
2022-09-07T21:19:07.104Z,15.28
2022-09-07T21:21:40.559Z,15.27
2022-09-07T21:24:22.731Z,15.25
2022-09-07T21:26:50.865Z,15.24
2022-09-07T21:29:24.300Z,15.25
2022-09-07T21:31:55.082Z,15.26
2022-09-07T21:34:24.538Z,15.25
2022-09-07T21:36:53.145Z,15.30
2022-09-07T21:39:21.006Z,15.30
2022-09-07T21:41:48.226Z,15.30
2022-09-07T21:44:16.382Z,15.31
2022-09-07T21:46:44.275Z,15.33
2022-09-07T21:49:11.857Z,15.34
2022-09-07T21:51:39.504Z,15.33
2022-09-07T21:54:07.120Z,15.30
2022-09-07T21:56:34.607Z,15.23
2022-09-07T21:59:02.152Z,15.25
2022-09-07T22:01:30.360Z,15.21
2022-09-07T22:04:03.536Z,15.14
2022-09-07T22:06:31.835Z,15.12
2022-09-07T22:09:00.122Z,15.11
2022-09-07T22:11:32.247Z,15.10
2022-09-07T22:14:02.441Z,15.09
2022-09-07T22:16:32.262Z,15.08
2022-09-07T22:18:59.757Z,15.08
2022-09-07T22:21:28.536Z,15.08
2022-09-07T22:24:04.420Z,15.06
2022-09-07T22:26:37.244Z,15.06
2022-09-07T22:29:07.278Z,15.09
2022-09-07T22:31:36.949Z,15.08
2022-09-07T22:34:07.896Z,15.14
2022-09-07T22:36:42.049Z,15.14
2022-09-07T22:39:15.912Z,15.15
2022-09-07T22:41:44.370Z,15.13
2022-09-07T22:44:14.881Z,15.10
2022-09-07T22:46:44.220Z,15.06
2022-09-07T22:49:14.505Z,15.02
2022-09-07T22:51:42.839Z,14.98
2022-09-07T22:54:10.219Z,14.94
2022-09-07T22:56:37.949Z,14.89
2022-09-07T22:59:07.590Z,14.80
2022-09-07T23:01:35.878Z,14.78
2022-09-07T23:04:03.899Z,14.74
2022-09-07T23:06:38.123Z,14.72
2022-09-07T23:09:09.747Z,14.70
2022-09-07T23:11:37.808Z,14.69
2022-09-07T23:14:10.526Z,14.66
2022-09-07T23:16:38.390Z,14.63
2022-09-07T23:19:06.407Z,14.59
2022-09-07T23:21:33.852Z,14.57
2022-09-07T23:24:01.515Z,14.56
2022-09-07T23:26:30.813Z,14.58
2022-09-07T23:29:01.599Z,14.57
2022-09-07T23:31:31.852Z,14.57
2022-09-07T23:34:00.563Z,14.54
2022-09-07T23:36:28.319Z,14.51
2022-09-07T23:38:57.198Z,14.45
2022-09-07T23:41:25.191Z,14.37
2022-09-07T23:43:53.645Z,14.31
2022-09-07T23:46:21.493Z,14.26
2022-09-07T23:48:49.471Z,14.20
2022-09-07T23:51:21.299Z,14.17
2022-09-07T23:53:52.321Z,14.13
2022-09-07T23:56:20.764Z,14.07
2022-09-07T23:58:48.395Z,14.02
